METAR Data

Data at: 0047 UTC 23 Mar 2019

METAR for:KPHX (Phoenix/Sky Harbor, AZ, US)
Text:KPHX 222351Z 25008KT 10SM FEW080 FEW250 22/01 A3000 RMK AO2 SLP150 T02220006 10233 20172 57013
Temperature: 22.2°C ( 72°F)
Dewpoint: 0.6°C ( 33°F) [RH = 24%]
Pressure (altimeter):30.00 inches Hg (1016.0 mb) [Sea level pressure: 1015.0 mb]
Winds:from the WSW (250 degrees) at 9 MPH (8 knots; 4.1 m/s)
Visibility:10 or more sm (16+ km)
Ceiling:at least 12,000 feet AGL
Clouds: few clouds at 8000 feet AGL, few clouds at 25000 feet AGL